sensor_id;sensor_type;location;lat;lon;timestamp;pressure;altitude;pressure_sealevel;temperature;humidity
18678;BME280;9469;51.114;13.914;2023-01-29T00:02:42;99947.63;;;-0.84;100.00
18678;BME280;9469;51.114;13.914;2023-01-29T00:07:50;99954.44;;;-0.96;100.00
18678;BME280;9469;51.114;13.914;2023-01-29T00:12:55;99943.06;;;-0.75;100.00
18678;BME280;9469;51.114;13.914;2023-01-29T00:18:00;99940.19;;;-1.00;100.00
18678;BME280;9469;51.114;13.914;2023-01-29T00:23:07;99939.16;;;-0.99;100.00
18678;BME280;9469;51.114;13.914;2023-01-29T00:28:13;99934.19;;;-0.81;100.00
18678;BME280;9469;51.114;13.914;2023-01-29T00:33:18;99932.50;;;-1.01;100.00
18678;BME280;9469;51.114;13.914;2023-01-29T00:38:26;99924.56;;;-0.80;100.00
18678;BME280;9469;51.114;13.914;2023-01-29T00:43:31;99921.69;;;-0.98;100.00
18678;BME280;9469;51.114;13.914;2023-01-29T00:48:48;99923.47;;;-0.99;100.00
18678;BME280;9469;51.114;13.914;2023-01-29T00:53:56;99906.25;;;-0.80;100.00
18678;BME280;9469;51.114;13.914;2023-01-29T00:59:01;99916.09;;;-0.89;100.00
18678;BME280;9469;51.114;13.914;2023-01-29T01:04:08;99916.84;;;-1.01;100.00
18678;BME280;9469;51.114;13.914;2023-01-29T01:09:20;99931.16;;;-0.91;100.00
18678;BME280;9469;51.114;13.914;2023-01-29T01:14:37;99928.81;;;-0.59;100.00
18678;BME280;9469;51.114;13.914;2023-01-29T01:19:44;99919.94;;;-0.78;100.00
18678;BME280;9469;51.114;13.914;2023-01-29T01:24:51;99925.97;;;-0.78;100.00
18678;BME280;9469;51.114;13.914;2023-01-29T01:29:56;99905.44;;;-0.94;100.00
18678;BME280;9469;51.114;13.914;2023-01-29T01:35:01;99914.66;;;-0.98;100.00
18678;BME280;9469;51.114;13.914;2023-01-29T01:40:12;99906.97;;;-1.12;100.00
18678;BME280;9469;51.114;13.914;2023-01-29T01:45:24;99904.28;;;-0.58;100.00
18678;BME280;9469;51.114;13.914;2023-01-29T01:50:34;99892.13;;;-1.05;100.00
18678;BME280;9469;51.114;13.914;2023-01-29T01:55:46;99900.56;;;-1.10;100.00
18678;BME280;9469;51.114;13.914;2023-01-29T02:00:53;99899.78;;;-0.97;100.00
18678;BME280;9469;51.114;13.914;2023-01-29T02:05:59;99900.59;;;-0.97;100.00
18678;BME280;9469;51.114;13.914;2023-01-29T02:11:19;99884.69;;;-1.02;99.74
18678;BME280;9469;51.114;13.914;2023-01-29T02:16:25;99878.03;;;-1.11;99.98
18678;BME280;9469;51.114;13.914;2023-01-29T02:21:44;99878.03;;;-1.11;100.00
18678;BME280;9469;51.114;13.914;2023-01-29T02:27:06;99881.69;;;-0.99;100.00
18678;BME280;9469;51.114;13.914;2023-01-29T02:32:21;99884.22;;;-1.31;100.00
18678;BME280;9469;51.114;13.914;2023-01-29T02:37:33;99887.41;;;-1.36;100.00
18678;BME280;9469;51.114;13.914;2023-01-29T02:42:47;99873.63;;;-1.04;100.00
18678;BME280;9469;51.114;13.914;2023-01-29T02:48:00;99885.38;;;-1.40;100.00
18678;BME280;9469;51.114;13.914;2023-01-29T02:53:09;99881.78;;;-1.33;100.00
18678;BME280;9469;51.114;13.914;2023-01-29T02:58:20;99879.56;;;-1.36;100.00
18678;BME280;9469;51.114;13.914;2023-01-29T03:03:33;99880.19;;;-1.75;100.00
18678;BME280;9469;51.114;13.914;2023-01-29T03:08:42;99892.63;;;-1.77;100.00
18678;BME280;9469;51.114;13.914;2023-01-29T03:13:56;99904.19;;;-1.86;100.00
18678;BME280;9469;51.114;13.914;2023-01-29T03:19:09;99879.84;;;-1.99;100.00
18678;BME280;9469;51.114;13.914;2023-01-29T03:24:20;99883.13;;;-1.84;100.00
18678;BME280;9469;51.114;13.914;2023-01-29T03:29:41;99879.88;;;-1.93;100.00
18678;BME280;9469;51.114;13.914;2023-01-29T03:35:12;99881.75;;;-1.80;100.00
18678;BME280;9469;51.114;13.914;2023-01-29T03:40:22;99891.63;;;-1.69;100.00
18678;BME280;9469;51.114;13.914;2023-01-29T03:45:30;99895.44;;;-1.72;100.00
18678;BME280;9469;51.114;13.914;2023-01-29T03:50:47;99878.38;;;-2.08;100.00
18678;BME280;9469;51.114;13.914;2023-01-29T03:55:59;99878.22;;;-1.66;100.00
18678;BME280;9469;51.114;13.914;2023-01-29T04:01:11;99895.59;;;-2.07;100.00
18678;BME280;9469;51.114;13.914;2023-01-29T04:06:23;99898.44;;;-2.02;100.00
18678;BME280;9469;51.114;13.914;2023-01-29T04:11:40;99876.75;;;-2.09;100.00
18678;BME280;9469;51.114;13.914;2023-01-29T04:16:50;99870.34;;;-2.07;100.00
18678;BME280;9469;51.114;13.914;2023-01-29T04:22:11;99851.53;;;-2.02;100.00
18678;BME280;9469;51.114;13.914;2023-01-29T04:27:25;99851.53;;;-2.02;100.00
18678;BME280;9469;51.114;13.914;2023-01-29T04:32:40;99840.09;;;-2.01;100.00
18678;BME280;9469;51.114;13.914;2023-01-29T04:38:00;99835.63;;;-2.07;100.00
18678;BME280;9469;51.114;13.914;2023-01-29T04:43:13;99842.75;;;-2.23;100.00
18678;BME280;9469;51.114;13.914;2023-01-29T04:48:22;99827.25;;;-2.31;100.00
18678;BME280;9469;51.114;13.914;2023-01-29T04:53:37;99830.09;;;-2.26;100.00
18678;BME280;9469;51.114;13.914;2023-01-29T04:58:47;99808.34;;;-2.11;100.00
18678;BME280;9469;51.114;13.914;2023-01-29T05:03:56;99796.53;;;-2.07;100.00
18678;BME280;9469;51.114;13.914;2023-01-29T05:09:05;99802.75;;;-2.08;100.00
18678;BME280;9469;51.114;13.914;2023-01-29T05:14:12;99795.94;;;-2.37;100.00
18678;BME280;9469;51.114;13.914;2023-01-29T05:19:19;99794.84;;;-2.22;100.00
18678;BME280;9469;51.114;13.914;2023-01-29T05:24:26;99800.81;;;-2.28;100.00
18678;BME280;9469;51.114;13.914;2023-01-29T05:29:31;99776.16;;;-2.32;100.00
18678;BME280;9469;51.114;13.914;2023-01-29T05:34:36;99774.47;;;-2.11;100.00
18678;BME280;9469;51.114;13.914;2023-01-29T05:39:44;99779.56;;;-2.31;100.00
18678;BME280;9469;51.114;13.914;2023-01-29T05:44:49;99775.06;;;-2.44;100.00
18678;BME280;9469;51.114;13.914;2023-01-29T05:49:54;99784.16;;;-2.33;100.00
18678;BME280;9469;51.114;13.914;2023-01-29T05:55:02;99779.09;;;-2.41;100.00
18678;BME280;9469;51.114;13.914;2023-01-29T06:00:08;99774.25;;;-2.44;100.00
18678;BME280;9469;51.114;13.914;2023-01-29T06:05:14;99785.56;;;-2.31;100.00
18678;BME280;9469;51.114;13.914;2023-01-29T06:10:22;99790.22;;;-2.54;100.00
18678;BME280;9469;51.114;13.914;2023-01-29T06:15:27;99782.59;;;-2.55;100.00
18678;BME280;9469;51.114;13.914;2023-01-29T06:20:32;99797.50;;;-2.15;100.00
18678;BME280;9469;51.114;13.914;2023-01-29T06:25:39;99808.44;;;-2.26;100.00
18678;BME280;9469;51.114;13.914;2023-01-29T06:30:45;99838.44;;;-2.37;100.00
18678;BME280;9469;51.114;13.914;2023-01-29T06:35:54;99835.03;;;-2.09;100.00
18678;BME280;9469;51.114;13.914;2023-01-29T06:41:07;99834.81;;;-1.74;100.00
18678;BME280;9469;51.114;13.914;2023-01-29T06:46:13;99848.13;;;-1.96;100.00
18678;BME280;9469;51.114;13.914;2023-01-29T06:51:18;99848.41;;;-1.85;100.00
18678;BME280;9469;51.114;13.914;2023-01-29T06:56:26;99866.50;;;-1.83;100.00
18678;BME280;9469;51.114;13.914;2023-01-29T07:01:32;99879.34;;;-1.41;99.75
18678;BME280;9469;51.114;13.914;2023-01-29T07:06:38;99893.38;;;-1.42;99.32
18678;BME280;9469;51.114;13.914;2023-01-29T07:11:46;99889.91;;;-1.08;98.41
18678;BME280;9469;51.114;13.914;2023-01-29T07:16:51;99892.44;;;-1.28;98.06
18678;BME280;9469;51.114;13.914;2023-01-29T07:21:56;99896.91;;;-1.15;97.93
18678;BME280;9469;51.114;13.914;2023-01-29T07:27:06;99898.63;;;-1.76;100.00
18678;BME280;9469;51.114;13.914;2023-01-29T07:32:11;99884.22;;;-1.72;100.00
18678;BME280;9469;51.114;13.914;2023-01-29T07:37:16;99877.28;;;-1.05;98.53
18678;BME280;9469;51.114;13.914;2023-01-29T07:42:24;99861.59;;;-1.11;97.70
18678;BME280;9469;51.114;13.914;2023-01-29T07:47:29;99857.97;;;-1.10;97.72
18678;BME280;9469;51.114;13.914;2023-01-29T07:52:34;99871.13;;;-1.38;99.42
18678;BME280;9469;51.114;13.914;2023-01-29T07:57:44;99857.56;;;-1.14;97.88
18678;BME280;9469;51.114;13.914;2023-01-29T08:02:49;99854.31;;;-1.29;98.54
18678;BME280;9469;51.114;13.914;2023-01-29T08:07:54;99839.50;;;-1.02;99.18
18678;BME280;9469;51.114;13.914;2023-01-29T08:13:10;99826.28;;;-0.75;97.97
18678;BME280;9469;51.114;13.914;2023-01-29T08:18:15;99825.06;;;-0.79;96.66
18678;BME280;9469;51.114;13.914;2023-01-29T08:23:20;99811.81;;;-0.70;98.32
18678;BME280;9469;51.114;13.914;2023-01-29T08:28:28;99815.03;;;-0.68;98.79
18678;BME280;9469;51.114;13.914;2023-01-29T08:33:33;99821.25;;;-0.76;98.24
18678;BME280;9469;51.114;13.914;2023-01-29T08:38:40;99808.19;;;-0.83;100.00
18678;BME280;9469;51.114;13.914;2023-01-29T08:43:49;99813.00;;;-0.47;98.26
18678;BME280;9469;51.114;13.914;2023-01-29T08:48:54;99832.72;;;-0.57;100.00
18678;BME280;9469;51.114;13.914;2023-01-29T08:53:59;99839.16;;;-0.40;99.65
18678;BME280;9469;51.114;13.914;2023-01-29T08:59:08;99841.94;;;-0.75;100.00
18678;BME280;9469;51.114;13.914;2023-01-29T09:04:13;99812.44;;;-0.75;99.27
18678;BME280;9469;51.114;13.914;2023-01-29T09:09:18;99792.91;;;-0.33;97.90
18678;BME280;9469;51.114;13.914;2023-01-29T09:14:26;99784.06;;;-0.32;97.28
18678;BME280;9469;51.114;13.914;2023-01-29T09:19:31;99803.16;;;-0.45;98.78
18678;BME280;9469;51.114;13.914;2023-01-29T09:24:36;99806.22;;;-0.54;100.00
18678;BME280;9469;51.114;13.914;2023-01-29T09:29:46;99787.28;;;-0.30;98.34
18678;BME280;9469;51.114;13.914;2023-01-29T09:34:51;99791.25;;;-0.15;99.76
18678;BME280;9469;51.114;13.914;2023-01-29T09:39:56;99803.78;;;-0.30;98.01
18678;BME280;9469;51.114;13.914;2023-01-29T09:45:08;99792.44;;;-0.04;98.88
18678;BME280;9469;51.114;13.914;2023-01-29T09:50:35;99781.94;;;0.03;98.75
18678;BME280;9469;51.114;13.914;2023-01-29T09:55:45;99773.81;;;-0.27;98.15
18678;BME280;9469;51.114;13.914;2023-01-29T10:01:00;99747.28;;;0.20;97.71
18678;BME280;9469;51.114;13.914;2023-01-29T10:06:22;99739.06;;;0.10;97.51
18678;BME280;9469;51.114;13.914;2023-01-29T10:11:37;99748.78;;;-0.04;99.36
18678;BME280;9469;51.114;13.914;2023-01-29T10:16:56;99741.53;;;-0.02;99.50
18678;BME280;9469;51.114;13.914;2023-01-29T10:22:13;99745.53;;;0.01;99.46
18678;BME280;9469;51.114;13.914;2023-01-29T10:27:29;99748.41;;;-0.07;99.47
18678;BME280;9469;51.114;13.914;2023-01-29T10:32:39;99750.84;;;0.32;97.58
18678;BME280;9469;51.114;13.914;2023-01-29T10:37:51;99762.63;;;0.10;99.24
18678;BME280;9469;51.114;13.914;2023-01-29T10:42:59;99753.66;;;0.37;98.33
18678;BME280;9469;51.114;13.914;2023-01-29T10:48:37;99741.06;;;0.15;98.29
18678;BME280;9469;51.114;13.914;2023-01-29T10:53:52;99729.84;;;0.45;97.92
18678;BME280;9469;51.114;13.914;2023-01-29T10:59:03;99711.03;;;0.24;98.72
18678;BME280;9469;51.114;13.914;2023-01-29T11:04:15;99694.13;;;0.57;98.30
18678;BME280;9469;51.114;13.914;2023-01-29T11:09:28;99688.41;;;0.42;99.02
18678;BME280;9469;51.114;13.914;2023-01-29T11:14:41;99683.66;;;0.26;98.99
18678;BME280;9469;51.114;13.914;2023-01-29T11:19:52;99678.38;;;0.33;99.59
18678;BME280;9469;51.114;13.914;2023-01-29T11:25:14;99658.22;;;0.40;99.34
18678;BME280;9469;51.114;13.914;2023-01-29T11:30:22;99653.28;;;0.56;98.26
18678;BME280;9469;51.114;13.914;2023-01-29T11:35:31;99654.69;;;0.21;99.29
18678;BME280;9469;51.114;13.914;2023-01-29T11:40:39;99641.97;;;0.31;99.32
18678;BME280;9469;51.114;13.914;2023-01-29T11:45:45;99649.44;;;0.52;97.77
18678;BME280;9469;51.114;13.914;2023-01-29T11:50:55;99636.94;;;0.61;98.99
18678;BME280;9469;51.114;13.914;2023-01-29T11:56:19;99632.47;;;0.61;100.00
18678;BME280;9469;51.114;13.914;2023-01-29T12:01:31;99632.53;;;0.80;99.16
18678;BME280;9469;51.114;13.914;2023-01-29T12:06:41;99616.69;;;0.68;98.78
18678;BME280;9469;51.114;13.914;2023-01-29T12:11:49;99610.97;;;0.78;98.98
18678;BME280;9469;51.114;13.914;2023-01-29T12:16:58;99610.22;;;0.70;98.70
18678;BME280;9469;51.114;13.914;2023-01-29T12:22:16;99592.56;;;1.27;97.38
18678;BME280;9469;51.114;13.914;2023-01-29T12:27:27;99574.72;;;0.99;97.58
18678;BME280;9469;51.114;13.914;2023-01-29T12:32:41;99560.53;;;1.07;97.63
18678;BME280;9469;51.114;13.914;2023-01-29T12:37:59;99571.72;;;0.96;98.21
18678;BME280;9469;51.114;13.914;2023-01-29T12:43:14;99574.09;;;1.04;98.04
18678;BME280;9469;51.114;13.914;2023-01-29T12:48:23;99573.13;;;1.16;98.51
18678;BME280;9469;51.114;13.914;2023-01-29T12:53:34;99557.31;;;1.05;98.16
18678;BME280;9469;51.114;13.914;2023-01-29T12:58:47;99549.63;;;1.10;99.83
18678;BME280;9469;51.114;13.914;2023-01-29T13:03:56;99549.38;;;1.29;97.26
18678;BME280;9469;51.114;13.914;2023-01-29T13:09:12;99555.66;;;1.28;98.01
18678;BME280;9469;51.114;13.914;2023-01-29T13:14:23;99524.50;;;1.20;98.59
18678;BME280;9469;51.114;13.914;2023-01-29T13:19:33;99533.16;;;1.39;98.57
18678;BME280;9469;51.114;13.914;2023-01-29T13:24:43;99532.59;;;1.19;99.69
18678;BME280;9469;51.114;13.914;2023-01-29T13:30:05;99515.56;;;1.58;98.01
18678;BME280;9469;51.114;13.914;2023-01-29T13:35:12;99521.84;;;1.38;98.56
18678;BME280;9469;51.114;13.914;2023-01-29T13:40:25;99507.03;;;1.62;98.59
18678;BME280;9469;51.114;13.914;2023-01-29T13:45:34;99513.25;;;1.50;99.23
18678;BME280;9469;51.114;13.914;2023-01-29T13:50:41;99526.28;;;1.38;98.93
18678;BME280;9469;51.114;13.914;2023-01-29T13:55:50;99515.19;;;1.24;100.00
18678;BME280;9469;51.114;13.914;2023-01-29T14:00:55;99509.88;;;1.31;99.99
18678;BME280;9469;51.114;13.914;2023-01-29T14:06:03;99508.84;;;1.32;100.00
18678;BME280;9469;51.114;13.914;2023-01-29T14:11:32;99506.69;;;1.29;100.00
18678;BME280;9469;51.114;13.914;2023-01-29T14:16:39;99503.13;;;1.53;100.00
18678;BME280;9469;51.114;13.914;2023-01-29T14:21:48;99509.69;;;1.44;100.00
18678;BME280;9469;51.114;13.914;2023-01-29T14:26:57;99498.75;;;0.99;100.00
18678;BME280;9469;51.114;13.914;2023-01-29T14:32:13;99491.81;;;1.23;100.00
18678;BME280;9469;51.114;13.914;2023-01-29T14:37:29;99498.88;;;1.22;100.00
18678;BME280;9469;51.114;13.914;2023-01-29T14:42:44;99499.03;;;1.09;100.00
18678;BME280;9469;51.114;13.914;2023-01-29T14:48:01;99507.13;;;0.90;100.00
18678;BME280;9469;51.114;13.914;2023-01-29T14:53:12;99503.78;;;1.01;100.00
18678;BME280;9469;51.114;13.914;2023-01-29T14:58:39;99504.06;;;1.11;100.00
18678;BME280;9469;51.114;13.914;2023-01-29T15:03:49;99496.56;;;0.96;100.00
18678;BME280;9469;51.114;13.914;2023-01-29T15:09:04;99493.50;;;0.81;100.00
18678;BME280;9469;51.114;13.914;2023-01-29T15:14:27;99504.50;;;0.90;100.00
18678;BME280;9469;51.114;13.914;2023-01-29T15:19:40;99497.38;;;0.79;100.00
18678;BME280;9469;51.114;13.914;2023-01-29T15:25:02;99490.34;;;0.72;100.00
18678;BME280;9469;51.114;13.914;2023-01-29T15:30:17;99483.53;;;0.71;100.00
18678;BME280;9469;51.114;13.914;2023-01-29T15:35:27;99485.44;;;0.83;100.00
18678;BME280;9469;51.114;13.914;2023-01-29T15:40:34;99481.50;;;0.73;100.00
18678;BME280;9469;51.114;13.914;2023-01-29T15:45:42;99471.19;;;0.79;100.00
18678;BME280;9469;51.114;13.914;2023-01-29T15:50:54;99463.25;;;0.85;100.00
18678;BME280;9469;51.114;13.914;2023-01-29T15:56:07;99463.91;;;0.81;100.00
18678;BME280;9469;51.114;13.914;2023-01-29T16:01:15;99462.09;;;0.81;100.00
18678;BME280;9469;51.114;13.914;2023-01-29T16:06:22;99455.47;;;0.60;100.00
18678;BME280;9469;51.114;13.914;2023-01-29T16:11:28;99455.22;;;0.62;100.00
18678;BME280;9469;51.114;13.914;2023-01-29T16:16:36;99455.47;;;0.60;100.00
18678;BME280;9469;51.114;13.914;2023-01-29T16:21:42;99440.91;;;0.64;100.00
18678;BME280;9469;51.114;13.914;2023-01-29T16:26:56;99438.59;;;0.56;100.00
18678;BME280;9469;51.114;13.914;2023-01-29T16:32:13;99436.63;;;0.52;100.00
18678;BME280;9469;51.114;13.914;2023-01-29T16:37:22;99428.53;;;0.53;100.00
18678;BME280;9469;51.114;13.914;2023-01-29T16:42:31;99418.94;;;0.47;100.00
18678;BME280;9469;51.114;13.914;2023-01-29T16:47:43;99420.75;;;0.47;100.00
18678;BME280;9469;51.114;13.914;2023-01-29T16:52:54;99415.59;;;0.58;100.00
18678;BME280;9469;51.114;13.914;2023-01-29T16:58:03;99405.72;;;0.42;100.00
18678;BME280;9469;51.114;13.914;2023-01-29T17:03:17;99396.09;;;0.36;100.00
18678;BME280;9469;51.114;13.914;2023-01-29T17:08:25;99396.38;;;0.28;100.00
18678;BME280;9469;51.114;13.914;2023-01-29T17:13:37;99401.56;;;0.53;100.00
18678;BME280;9469;51.114;13.914;2023-01-29T17:18:46;99405.78;;;0.54;100.00
18678;BME280;9469;51.114;13.914;2023-01-29T17:24:01;99400.09;;;0.39;100.00
18678;BME280;9469;51.114;13.914;2023-01-29T17:29:12;99396.69;;;0.38;100.00
18678;BME280;9469;51.114;13.914;2023-01-29T17:34:20;99401.94;;;0.56;100.00
18678;BME280;9469;51.114;13.914;2023-01-29T17:39:25;99398.94;;;0.35;100.00
18678;BME280;9469;51.114;13.914;2023-01-29T17:44:30;99388.63;;;0.58;100.00
18678;BME280;9469;51.114;13.914;2023-01-29T17:49:38;99398.44;;;0.44;100.00
18678;BME280;9469;51.114;13.914;2023-01-29T17:54:45;99391.16;;;0.28;100.00
18678;BME280;9469;51.114;13.914;2023-01-29T17:59:52;99389.69;;;0.32;100.00
18678;BME280;9469;51.114;13.914;2023-01-29T18:05:00;99387.66;;;0.52;100.00
18678;BME280;9469;51.114;13.914;2023-01-29T18:10:12;99380.38;;;0.36;100.00
18678;BME280;9469;51.114;13.914;2023-01-29T18:15:17;99378.97;;;0.40;100.00
18678;BME280;9469;51.114;13.914;2023-01-29T18:20:27;99376.84;;;0.31;100.00
18678;BME280;9469;51.114;13.914;2023-01-29T18:25:33;99362.03;;;0.72;100.00
18678;BME280;9469;51.114;13.914;2023-01-29T18:30:39;99362.06;;;0.54;100.00
18678;BME280;9469;51.114;13.914;2023-01-29T18:35:50;99358.03;;;0.40;100.00
18678;BME280;9469;51.114;13.914;2023-01-29T18:41:03;99340.03;;;0.44;100.00
18678;BME280;9469;51.114;13.914;2023-01-29T18:46:11;99339.97;;;0.50;100.00
18678;BME280;9469;51.114;13.914;2023-01-29T18:51:20;99339.41;;;0.30;100.00
18678;BME280;9469;51.114;13.914;2023-01-29T18:56:26;99316.25;;;0.45;100.00
18678;BME280;9469;51.114;13.914;2023-01-29T19:01:31;99315.63;;;0.32;100.00
18678;BME280;9469;51.114;13.914;2023-01-29T19:06:43;99296.94;;;0.28;100.00
18678;BME280;9469;51.114;13.914;2023-01-29T19:11:49;99283.44;;;0.31;100.00
18678;BME280;9469;51.114;13.914;2023-01-29T19:16:57;99289.53;;;0.25;100.00
18678;BME280;9469;51.114;13.914;2023-01-29T19:22:08;99290.13;;;0.09;100.00
18678;BME280;9469;51.114;13.914;2023-01-29T19:27:15;99273.25;;;0.05;100.00
18678;BME280;9469;51.114;13.914;2023-01-29T19:32:21;99268.09;;;-0.02;100.00
18678;BME280;9469;51.114;13.914;2023-01-29T19:37:29;99272.03;;;0.08;100.00
18678;BME280;9469;51.114;13.914;2023-01-29T19:42:35;99260.91;;;-0.06;100.00
18678;BME280;9469;51.114;13.914;2023-01-29T19:47:43;99265.28;;;-0.18;100.00
18678;BME280;9469;51.114;13.914;2023-01-29T19:52:53;99253.16;;;-0.13;100.00
18678;BME280;9469;51.114;13.914;2023-01-29T19:58:02;99249.00;;;-0.20;100.00
18678;BME280;9469;51.114;13.914;2023-01-29T20:03:10;99248.34;;;0.03;100.00
18678;BME280;9469;51.114;13.914;2023-01-29T20:08:20;99247.41;;;-0.21;100.00
18678;BME280;9469;51.114;13.914;2023-01-29T20:13:26;99249.16;;;-0.15;100.00
18678;BME280;9469;51.114;13.914;2023-01-29T20:18:34;99262.88;;;-0.20;100.00
18678;BME280;9469;51.114;13.914;2023-01-29T20:23:47;99253.13;;;-0.31;100.00
18678;BME280;9469;51.114;13.914;2023-01-29T20:28:54;99242.59;;;-0.24;100.00
18678;BME280;9469;51.114;13.914;2023-01-29T20:34:00;99228.88;;;-0.20;100.00
18678;BME280;9469;51.114;13.914;2023-01-29T20:39:09;99229.59;;;-0.31;100.00
18678;BME280;9469;51.114;13.914;2023-01-29T20:44:15;99234.69;;;-0.36;99.71
18678;BME280;9469;51.114;13.914;2023-01-29T20:49:24;99221.91;;;-0.44;100.00
18678;BME280;9469;51.114;13.914;2023-01-29T20:54:34;99225.44;;;-0.56;100.00
18678;BME280;9469;51.114;13.914;2023-01-29T20:59:41;99215.59;;;-0.54;100.00
18678;BME280;9469;51.114;13.914;2023-01-29T21:04:47;99210.19;;;-0.59;100.00
18678;BME280;9469;51.114;13.914;2023-01-29T21:10:00;99197.69;;;-0.76;100.00
18678;BME280;9469;51.114;13.914;2023-01-29T21:15:07;99183.38;;;-0.91;100.00
18678;BME280;9469;51.114;13.914;2023-01-29T21:20:13;99169.44;;;-0.85;100.00
18678;BME280;9469;51.114;13.914;2023-01-29T21:25:23;99157.03;;;-0.90;100.00
18678;BME280;9469;51.114;13.914;2023-01-29T21:30:31;99158.84;;;-0.72;100.00
18678;BME280;9469;51.114;13.914;2023-01-29T21:35:37;99152.50;;;-1.01;100.00
18678;BME280;9469;51.114;13.914;2023-01-29T21:40:45;99138.75;;;-0.90;100.00
18678;BME280;9469;51.114;13.914;2023-01-29T21:45:54;99143.09;;;-0.84;99.54
18678;BME280;9469;51.114;13.914;2023-01-29T21:51:00;99138.75;;;-0.90;99.73
18678;BME280;9469;51.114;13.914;2023-01-29T21:56:10;99119.00;;;-0.86;99.85
18678;BME280;9469;51.114;13.914;2023-01-29T22:01:20;99123.06;;;-0.90;98.22
18678;BME280;9469;51.114;13.914;2023-01-29T22:06:39;99096.97;;;-0.90;98.29
18678;BME280;9469;51.114;13.914;2023-01-29T22:11:47;99083.16;;;-0.97;97.82
18678;BME280;9469;51.114;13.914;2023-01-29T22:16:52;99075.72;;;-0.93;97.91
18678;BME280;9469;51.114;13.914;2023-01-29T22:21:57;99063.16;;;-1.03;97.85
18678;BME280;9469;51.114;13.914;2023-01-29T22:27:05;99043.91;;;-0.72;96.61
18678;BME280;9469;51.114;13.914;2023-01-29T22:32:10;99022.69;;;-0.94;97.81
18678;BME280;9469;51.114;13.914;2023-01-29T22:37:15;99014.94;;;-1.00;97.60
18678;BME280;9469;51.114;13.914;2023-01-29T22:42:23;99008.75;;;-1.06;97.29
18678;BME280;9469;51.114;13.914;2023-01-29T22:47:31;98993.59;;;-0.97;96.96
18678;BME280;9469;51.114;13.914;2023-01-29T22:52:35;98984.53;;;-0.95;97.02
18678;BME280;9469;51.114;13.914;2023-01-29T22:57:47;98974.22;;;-0.90;96.90
18678;BME280;9469;51.114;13.914;2023-01-29T23:02:52;98973.34;;;-0.84;96.10
18678;BME280;9469;51.114;13.914;2023-01-29T23:07:57;98974.63;;;-0.75;96.07
18678;BME280;9469;51.114;13.914;2023-01-29T23:13:05;98952.59;;;-0.79;95.88
18678;BME280;9469;51.114;13.914;2023-01-29T23:18:10;98946.00;;;-0.99;95.98
18678;BME280;9469;51.114;13.914;2023-01-29T23:23:15;98946.66;;;-0.86;95.94
18678;BME280;9469;51.114;13.914;2023-01-29T23:28:23;98938.19;;;-0.99;96.23
18678;BME280;9469;51.114;13.914;2023-01-29T23:33:28;98931.38;;;-1.00;96.48
18678;BME280;9469;51.114;13.914;2023-01-29T23:38:33;98917.38;;;-1.06;96.91
18678;BME280;9469;51.114;13.914;2023-01-29T23:43:42;98899.38;;;-0.96;97.32
18678;BME280;9469;51.114;13.914;2023-01-29T23:48:47;98879.31;;;-0.84;96.49
18678;BME280;9469;51.114;13.914;2023-01-29T23:53:52;98871.97;;;-0.75;97.18
18678;BME280;9469;51.114;13.914;2023-01-29T23:59:00;98861.16;;;-0.79;96.74
